createdAt,value
2019-04-14T00:00:03.428Z,13.53
2019-04-14T00:02:32.108Z,13.52
2019-04-14T00:04:59.488Z,13.55
2019-04-14T00:07:27.609Z,13.64
2019-04-14T00:09:54.661Z,13.73
2019-04-14T00:12:22.952Z,13.74
2019-04-14T00:14:51.176Z,13.74
2019-04-14T00:17:19.444Z,13.75
2019-04-14T00:19:47.708Z,13.80
2019-04-14T00:22:14.781Z,13.83
2019-04-14T00:24:42.453Z,13.70
2019-04-14T00:27:10.569Z,13.64
2019-04-14T00:29:37.659Z,13.64
2019-04-14T00:32:05.154Z,13.56
2019-04-14T00:34:33.131Z,13.59
2019-04-14T00:37:01.273Z,13.61
2019-04-14T00:39:29.425Z,13.55
2019-04-14T00:41:59.043Z,13.45
2019-04-14T00:44:25.436Z,13.45
2019-04-14T00:46:52.414Z,13.56
2019-04-14T00:49:20.034Z,13.63
2019-04-14T00:51:48.509Z,13.61
2019-04-14T00:54:15.925Z,13.65
2019-04-14T00:56:43.353Z,13.62
2019-04-14T00:59:11.350Z,13.68
2019-04-14T01:01:39.410Z,13.77
2019-04-14T01:04:07.695Z,13.81
2019-04-14T01:06:34.678Z,13.78
2019-04-14T01:09:02.104Z,13.84
2019-04-14T01:11:31.364Z,13.89
2019-04-14T01:13:59.395Z,13.92
2019-04-14T01:16:27.039Z,13.89
2019-04-14T01:18:55.871Z,13.77
2019-04-14T01:21:24.138Z,13.80
2019-04-14T01:23:52.267Z,13.88
2019-04-14T01:26:20.451Z,13.90
2019-04-14T01:28:48.301Z,13.91
2019-04-14T01:31:16.358Z,13.95
2019-04-14T01:33:44.444Z,13.98
2019-04-14T01:36:12.739Z,13.96
2019-04-14T01:38:40.608Z,13.92
2019-04-14T01:41:08.554Z,13.87
2019-04-14T01:43:36.407Z,13.70
2019-04-14T01:46:11.663Z,13.69
2019-04-14T01:48:32.468Z,13.80
2019-04-14T01:51:00.572Z,13.76
2019-04-14T01:53:27.612Z,13.79
2019-04-14T01:55:54.930Z,13.86
2019-04-14T01:58:22.864Z,13.94
2019-04-14T02:00:51.261Z,14.01
2019-04-14T02:03:19.501Z,14.06
2019-04-14T02:05:47.472Z,14.05
2019-04-14T02:08:15.499Z,14.00
2019-04-14T02:10:43.470Z,13.95
2019-04-14T02:13:11.486Z,13.92
2019-04-14T02:15:39.596Z,13.95
2019-04-14T02:18:07.744Z,14.00
2019-04-14T02:20:35.952Z,14.00
2019-04-14T02:23:03.996Z,14.00
2019-04-14T02:25:32.089Z,13.94
2019-04-14T02:28:00.138Z,13.91
2019-04-14T02:30:34.005Z,13.94
2019-04-14T02:33:23.677Z,13.93
2019-04-14T02:35:59.692Z,13.83
2019-04-14T02:38:33.461Z,13.78
2019-04-14T02:40:53.882Z,13.49
2019-04-14T02:43:23.680Z,13.45
2019-04-14T02:45:59.982Z,13.44
2019-04-14T02:48:29.236Z,13.47
2019-04-14T02:50:42.205Z,13.48
2019-04-14T02:53:15.184Z,13.45
2019-04-14T02:55:46.789Z,13.51
2019-04-14T02:58:16.315Z,13.48
2019-04-14T03:03:08.817Z,13.38
2019-04-14T03:05:34.123Z,13.36
2019-04-14T03:08:10.685Z,13.43
2019-04-14T03:10:33.262Z,13.44
2019-04-14T03:13:05.545Z,13.51
2019-04-14T03:15:37.807Z,13.50
2019-04-14T03:18:18.596Z,13.54
2019-04-14T03:20:24.511Z,13.53
2019-04-14T03:22:55.756Z,13.60
2019-04-14T03:25:17.094Z,13.64
2019-04-14T03:27:55.144Z,13.69
2019-04-14T03:30:48.840Z,13.57
2019-04-14T03:35:51.102Z,13.22
2019-04-14T03:37:50.930Z,13.24
2019-04-14T03:40:18.327Z,13.17
2019-04-14T03:42:45.975Z,13.15
2019-04-14T03:45:15.511Z,13.12
2019-04-14T03:47:43.360Z,12.94
2019-04-14T03:50:06.058Z,12.74
2019-04-14T03:52:52.728Z,12.68
2019-04-14T03:54:58.225Z,12.76
2019-04-14T03:57:10.424Z,12.87
2019-04-14T03:59:39.129Z,12.93
2019-04-14T04:02:07.433Z,12.91
2019-04-14T04:04:34.480Z,12.77
2019-04-14T04:07:01.884Z,12.68
2019-04-14T04:09:29.970Z,12.65
2019-04-14T04:11:57.044Z,12.68
2019-04-14T04:14:24.614Z,12.75
2019-04-14T04:16:52.857Z,12.80
2019-04-14T04:19:21.171Z,12.91
2019-04-14T04:21:48.794Z,12.89
2019-04-14T04:24:17.011Z,12.90
2019-04-14T04:26:45.064Z,12.86
2019-04-14T04:29:12.126Z,12.79
2019-04-14T04:31:39.599Z,12.82
2019-04-14T04:34:07.618Z,12.97
2019-04-14T04:36:35.631Z,13.03
2019-04-14T04:39:03.867Z,13.05
2019-04-14T04:41:31.796Z,13.05
2019-04-14T04:43:59.157Z,12.99
2019-04-14T04:46:26.582Z,13.04
2019-04-14T04:49:03.175Z,13.11
2019-04-14T04:51:22.522Z,13.12
2019-04-14T04:53:50.509Z,13.13
2019-04-14T04:56:18.591Z,13.11
2019-04-14T04:58:45.681Z,13.10
2019-04-14T05:01:12.572Z,13.16
2019-04-14T05:03:40.718Z,13.22
2019-04-14T05:06:08.975Z,13.25
2019-04-14T05:08:36.968Z,13.19
2019-04-14T05:11:04.040Z,13.16
2019-04-14T05:13:31.351Z,13.18
2019-04-14T05:15:58.360Z,13.24
2019-04-14T05:18:26.667Z,13.25
2019-04-14T05:20:53.806Z,13.20
2019-04-14T05:23:21.344Z,13.19
2019-04-14T05:25:49.424Z,13.20
2019-04-14T05:28:17.707Z,13.23
2019-04-14T05:30:45.824Z,13.24
2019-04-14T05:33:14.090Z,13.27
2019-04-14T05:35:42.343Z,13.26
2019-04-14T05:38:10.519Z,13.18
2019-04-14T05:40:38.535Z,13.16
2019-04-14T05:43:06.719Z,13.19
2019-04-14T05:45:35.046Z,13.23
2019-04-14T05:48:03.242Z,13.21
2019-04-14T05:50:31.306Z,13.21
2019-04-14T05:52:58.248Z,13.21
2019-04-14T05:55:26.296Z,13.18
2019-04-14T05:57:54.517Z,13.11
2019-04-14T06:00:21.607Z,13.11
2019-04-14T06:02:48.946Z,13.07
2019-04-14T06:05:16.614Z,13.07
2019-04-14T06:07:43.941Z,13.14
2019-04-14T06:10:11.891Z,13.18
2019-04-14T06:12:38.787Z,13.16
2019-04-14T06:15:05.731Z,13.15
2019-04-14T06:17:32.600Z,13.17
2019-04-14T06:19:59.469Z,13.23
2019-04-14T06:22:26.382Z,13.28
2019-04-14T06:24:53.708Z,13.32
2019-04-14T06:27:20.873Z,13.35
2019-04-14T06:29:48.307Z,13.37
2019-04-14T06:32:15.453Z,13.42
2019-04-14T06:34:42.348Z,13.41
2019-04-14T06:37:09.236Z,13.45
2019-04-14T06:39:36.505Z,13.51
2019-04-14T06:42:03.769Z,13.46
2019-04-14T06:44:31.136Z,13.40
2019-04-14T06:46:58.382Z,13.38
2019-04-14T06:49:25.616Z,13.34
2019-04-14T06:51:52.934Z,13.36
2019-04-14T06:54:19.873Z,13.39
2019-04-14T06:56:47.058Z,13.43
2019-04-14T06:59:13.937Z,13.42
2019-04-14T07:01:40.941Z,13.41
2019-04-14T07:04:08.222Z,13.41
2019-04-14T07:06:35.484Z,13.37
2019-04-14T07:09:02.721Z,13.31
2019-04-14T07:11:31.508Z,13.20
2019-04-14T07:13:58.508Z,13.15
2019-04-14T07:16:25.425Z,13.13
2019-04-14T07:18:52.396Z,13.09
2019-04-14T07:21:19.253Z,13.09
2019-04-14T07:23:47.366Z,13.10
2019-04-14T07:26:14.413Z,13.11
2019-04-14T07:28:41.662Z,13.16
2019-04-14T07:31:08.913Z,13.20
2019-04-14T07:33:35.897Z,13.18
2019-04-14T07:36:03.129Z,13.14
2019-04-14T07:38:30.096Z,13.13
2019-04-14T07:40:57.312Z,13.15
2019-04-14T07:43:24.458Z,13.20
2019-04-14T07:45:51.330Z,13.21
2019-04-14T07:48:18.235Z,13.28
2019-04-14T07:50:45.516Z,13.37
2019-04-14T07:53:12.456Z,13.42
2019-04-14T07:55:39.378Z,13.41
2019-04-14T07:58:06.650Z,13.40
2019-04-14T08:00:33.529Z,13.45
2019-04-14T08:03:00.416Z,13.41
2019-04-14T08:05:27.321Z,13.41
2019-04-14T08:07:54.525Z,13.43
2019-04-14T08:10:21.409Z,13.41
2019-04-14T08:12:48.336Z,13.43
2019-04-14T08:15:15.274Z,13.44
2019-04-14T08:17:43.734Z,13.47
2019-04-14T08:20:11.146Z,13.49
2019-04-14T08:22:38.346Z,13.54
2019-04-14T08:25:05.630Z,13.55
2019-04-14T08:27:32.584Z,13.61
2019-04-14T08:29:59.925Z,13.72
2019-04-14T08:32:26.798Z,13.76
2019-04-14T08:34:53.748Z,13.78
2019-04-14T08:37:21.986Z,13.68
2019-04-14T08:39:48.858Z,13.65
2019-04-14T08:42:16.131Z,13.59
2019-04-14T08:44:43.368Z,13.61
2019-04-14T08:47:10.701Z,13.68
2019-04-14T08:49:37.664Z,13.65
2019-04-14T08:52:04.565Z,13.69
2019-04-14T08:54:31.835Z,13.71
2019-04-14T08:56:59.181Z,13.65
2019-04-14T08:59:26.332Z,13.68
2019-04-14T09:01:53.572Z,13.77
2019-04-14T09:04:21.517Z,13.85
2019-04-14T09:06:48.559Z,13.89
2019-04-14T09:09:15.592Z,13.88
2019-04-14T09:11:42.542Z,13.85
2019-04-14T09:14:09.482Z,13.86
2019-04-14T09:16:36.389Z,13.85
2019-04-14T09:19:07.947Z,13.94
2019-04-14T09:21:32.222Z,14.00
2019-04-14T09:23:59.375Z,14.00
2019-04-14T09:26:26.713Z,13.99
2019-04-14T09:28:53.718Z,14.00
2019-04-14T09:31:20.931Z,14.05
2019-04-14T09:33:47.820Z,14.10
2019-04-14T09:36:15.166Z,14.10
2019-04-14T09:38:42.044Z,14.03
2019-04-14T09:41:08.929Z,14.04
2019-04-14T09:43:36.261Z,14.05
2019-04-14T09:46:03.176Z,14.07
2019-04-14T09:48:30.497Z,14.07
2019-04-14T09:51:04.620Z,14.05
2019-04-14T09:53:26.301Z,14.09
2019-04-14T09:55:53.317Z,14.18
2019-04-14T09:58:20.319Z,14.23
2019-04-14T10:00:48.204Z,14.26
2019-04-14T10:03:15.166Z,14.27
2019-04-14T10:05:42.465Z,14.28
2019-04-14T10:08:09.356Z,14.21
2019-04-14T10:10:36.302Z,14.26
2019-04-14T10:13:03.369Z,14.32
2019-04-14T10:15:30.251Z,14.38
2019-04-14T10:17:57.208Z,14.42
2019-04-14T10:20:24.358Z,14.41
2019-04-14T10:22:51.617Z,14.40
2019-04-14T10:25:18.864Z,14.40
2019-04-14T10:27:45.755Z,14.45
2019-04-14T10:30:12.778Z,14.47
2019-04-14T10:32:39.797Z,14.45
2019-04-14T10:35:06.742Z,14.52
2019-04-14T10:37:33.710Z,14.53
2019-04-14T10:40:00.612Z,14.52
2019-04-14T10:42:27.630Z,14.55
2019-04-14T10:44:54.498Z,14.55
2019-04-14T10:47:21.457Z,14.55
2019-04-14T10:49:48.477Z,14.57
2019-04-14T10:52:15.422Z,14.58
2019-04-14T10:54:42.715Z,14.61
2019-04-14T10:57:09.682Z,14.62
2019-04-14T10:59:36.608Z,14.62
2019-04-14T11:02:03.842Z,14.64
2019-04-14T11:04:30.735Z,14.66
2019-04-14T11:06:58.055Z,14.74
2019-04-14T11:09:25.018Z,14.81
2019-04-14T11:11:51.933Z,14.84
2019-04-14T11:14:19.184Z,14.84
2019-04-14T11:16:46.436Z,14.85
2019-04-14T11:19:13.607Z,14.90
2019-04-14T11:21:42.669Z,14.93
2019-04-14T11:24:09.441Z,14.95
2019-04-14T11:26:36.389Z,14.95
2019-04-14T11:29:03.357Z,14.95
2019-04-14T11:31:30.301Z,14.97
2019-04-14T11:33:57.264Z,14.99
2019-04-14T11:36:24.227Z,15.03
2019-04-14T11:38:51.169Z,15.06
2019-04-14T11:41:18.397Z,15.08
2019-04-14T11:43:45.633Z,15.14
2019-04-14T11:46:12.569Z,15.16
2019-04-14T11:48:39.817Z,15.17
2019-04-14T11:51:06.973Z,15.20
2019-04-14T11:53:34.134Z,15.25
2019-04-14T11:56:01.348Z,15.28
2019-04-14T11:58:29.354Z,15.30
2019-04-14T12:00:56.411Z,15.31
2019-04-14T12:03:25.160Z,15.33
2019-04-14T12:05:52.097Z,15.34
2019-04-14T12:08:18.994Z,15.37
2019-04-14T12:10:45.878Z,15.39
2019-04-14T12:13:14.888Z,15.42
2019-04-14T12:15:41.825Z,15.44
2019-04-14T12:18:08.707Z,15.53
2019-04-14T12:20:35.573Z,15.58
2019-04-14T12:23:02.782Z,15.60
2019-04-14T12:25:29.920Z,15.62
2019-04-14T12:27:57.931Z,15.62
2019-04-14T12:30:24.955Z,15.63
2019-04-14T12:32:52.096Z,15.65
2019-04-14T12:35:19.000Z,15.67
2019-04-14T12:37:46.197Z,15.68
2019-04-14T12:40:16.357Z,15.71
2019-04-14T12:42:45.420Z,15.71
2019-04-14T12:45:12.336Z,15.81
2019-04-14T12:47:40.283Z,15.93
2019-04-14T12:50:07.901Z,16.01
2019-04-14T12:52:35.133Z,16.10
2019-04-14T12:55:02.001Z,16.16
2019-04-14T12:57:30.383Z,16.20
2019-04-14T12:59:57.397Z,16.28
2019-04-14T13:02:24.658Z,16.35
2019-04-14T13:04:51.807Z,16.42
2019-04-14T13:07:18.695Z,16.49
2019-04-14T13:09:45.657Z,16.55
2019-04-14T13:12:12.622Z,16.61
2019-04-14T13:14:39.916Z,16.68
2019-04-14T13:17:06.855Z,16.72
2019-04-14T13:19:33.763Z,16.73
2019-04-14T13:22:00.721Z,16.75
2019-04-14T13:24:27.672Z,16.71
2019-04-14T13:26:54.661Z,16.68
2019-04-14T13:29:21.986Z,16.68
2019-04-14T13:31:49.246Z,16.69
2019-04-14T13:34:16.117Z,16.72
2019-04-14T13:36:43.349Z,16.70
2019-04-14T13:39:12.590Z,16.72
2019-04-14T13:41:39.386Z,16.74
2019-04-14T13:44:06.357Z,16.77
2019-04-14T13:46:33.250Z,16.78
2019-04-14T13:49:00.197Z,16.82
2019-04-14T13:51:27.152Z,16.85
2019-04-14T13:53:54.321Z,16.91
2019-04-14T13:56:22.269Z,16.94
2019-04-14T13:58:49.426Z,16.94
2019-04-14T14:01:16.324Z,16.95
2019-04-14T14:03:43.538Z,16.97
2019-04-14T14:06:10.906Z,17.02
2019-04-14T14:08:38.142Z,17.14
2019-04-14T14:11:05.389Z,17.23
2019-04-14T14:13:32.540Z,17.29
2019-04-14T14:15:59.439Z,17.35
2019-04-14T14:18:26.394Z,17.42
2019-04-14T14:20:53.744Z,17.45
2019-04-14T14:23:20.638Z,17.45
2019-04-14T14:25:47.535Z,17.49
2019-04-14T14:28:14.844Z,17.49
2019-04-14T14:30:42.109Z,17.50
2019-04-14T14:33:09.012Z,17.50
2019-04-14T14:35:36.278Z,17.53
2019-04-14T14:38:03.181Z,17.57
2019-04-14T14:40:30.068Z,17.61
2019-04-14T14:42:57.233Z,17.63
2019-04-14T14:45:24.165Z,17.69
2019-04-14T14:47:51.034Z,17.73
2019-04-14T14:50:18.256Z,17.75
2019-04-14T14:52:45.536Z,17.79
2019-04-14T14:55:12.772Z,17.85
2019-04-14T14:57:39.661Z,17.90
2019-04-14T15:00:06.528Z,17.97
2019-04-14T15:02:33.721Z,18.00
2019-04-14T15:05:00.616Z,18.05
2019-04-14T15:07:27.604Z,18.06
2019-04-14T15:09:54.895Z,17.96
2019-04-14T15:12:22.211Z,17.97
2019-04-14T15:14:49.084Z,18.02
2019-04-14T15:17:16.324Z,18.09
2019-04-14T15:19:43.566Z,18.15
2019-04-14T15:22:10.825Z,18.15
2019-04-14T15:24:38.057Z,18.15
2019-04-14T15:27:05.258Z,18.17
2019-04-14T15:29:33.444Z,18.22
2019-04-14T15:32:00.648Z,18.25
2019-04-14T15:34:27.514Z,18.24
2019-04-14T15:36:54.389Z,18.26
2019-04-14T15:39:21.299Z,18.26
2019-04-14T15:41:48.638Z,18.26
2019-04-14T15:44:15.594Z,18.27
2019-04-14T15:46:42.453Z,18.28
2019-04-14T15:49:09.663Z,18.28
2019-04-14T15:51:36.537Z,18.25
2019-04-14T15:54:03.772Z,18.25
2019-04-14T15:56:31.062Z,18.23
2019-04-14T15:58:58.031Z,18.21
2019-04-14T16:01:24.953Z,18.19
2019-04-14T16:03:52.178Z,18.20
2019-04-14T16:06:19.057Z,18.21
2019-04-14T16:08:46.269Z,18.22
2019-04-14T16:11:13.242Z,18.25
2019-04-14T16:13:40.239Z,18.28
2019-04-14T16:16:07.507Z,18.30
2019-04-14T16:18:34.416Z,18.28
2019-04-14T16:21:01.940Z,18.27
2019-04-14T16:23:29.069Z,18.25
2019-04-14T16:25:55.957Z,18.22
2019-04-14T16:28:22.844Z,18.22
2019-04-14T16:30:50.132Z,18.22
2019-04-14T16:33:17.471Z,18.22
2019-04-14T16:35:44.713Z,18.22
2019-04-14T16:38:11.609Z,18.22
2019-04-14T16:40:38.472Z,18.22
2019-04-14T16:43:05.702Z,18.19
2019-04-14T16:45:33.025Z,18.18
2019-04-14T16:48:00.291Z,18.17
2019-04-14T16:50:27.526Z,18.17
2019-04-14T16:52:54.462Z,18.15
2019-04-14T16:55:21.806Z,18.14
2019-04-14T16:57:48.978Z,18.11
2019-04-14T17:00:16.344Z,18.07
2019-04-14T17:02:43.990Z,18.06
2019-04-14T17:05:10.884Z,18.04
2019-04-14T17:07:38.798Z,18.03
2019-04-14T17:10:06.046Z,18.03
2019-04-14T17:12:33.718Z,18.00
2019-04-14T17:15:00.716Z,18.00
2019-04-14T17:17:27.739Z,17.99
2019-04-14T17:19:57.079Z,17.98
2019-04-14T17:22:23.229Z,17.97
2019-04-14T17:24:50.200Z,17.98
2019-04-14T17:27:17.162Z,17.99
2019-04-14T17:29:44.487Z,18.00
2019-04-14T17:32:11.434Z,18.05
2019-04-14T17:34:38.683Z,18.06
2019-04-14T17:37:05.834Z,18.09
2019-04-14T17:39:33.090Z,18.11
2019-04-14T17:42:00.342Z,18.08
2019-04-14T17:44:27.281Z,18.06
2019-04-14T17:46:54.241Z,18.06
2019-04-14T17:49:21.197Z,18.03
2019-04-14T17:51:48.709Z,18.01
2019-04-14T17:54:15.638Z,18.00
2019-04-14T17:56:42.546Z,17.98
2019-04-14T17:59:09.802Z,17.97
2019-04-14T18:01:37.831Z,17.93
2019-04-14T18:04:06.408Z,17.91
2019-04-14T18:06:33.359Z,17.87
2019-04-14T18:09:00.270Z,17.87
2019-04-14T18:11:27.254Z,17.86
2019-04-14T18:13:54.220Z,17.85
2019-04-14T18:16:21.216Z,17.83
2019-04-14T18:18:49.315Z,17.76
2019-04-14T18:21:16.635Z,17.74
2019-04-14T18:23:45.190Z,17.75
2019-04-14T18:26:12.582Z,17.75
2019-04-14T18:28:39.660Z,17.72
2019-04-14T18:31:06.943Z,17.70
2019-04-14T18:33:33.813Z,17.61
2019-04-14T18:36:00.765Z,17.61
2019-04-14T18:38:27.748Z,17.59
2019-04-14T18:40:55.023Z,17.52
2019-04-14T18:43:22.092Z,17.47
2019-04-14T18:45:49.319Z,17.49
2019-04-14T18:48:16.574Z,17.46
2019-04-14T18:50:43.475Z,17.44
2019-04-14T18:53:10.489Z,17.42
2019-04-14T18:55:37.369Z,17.41
2019-04-14T18:58:04.266Z,17.41
2019-04-14T19:00:31.512Z,17.41
2019-04-14T19:02:58.412Z,17.39
2019-04-14T19:05:25.382Z,17.34
2019-04-14T19:07:52.656Z,17.28
2019-04-14T19:10:19.529Z,17.20
2019-04-14T19:12:46.397Z,17.17
2019-04-14T19:15:13.288Z,17.19
2019-04-14T19:17:40.250Z,17.20
2019-04-14T19:20:07.496Z,17.20
2019-04-14T19:22:34.364Z,17.19
2019-04-14T19:25:08.068Z,17.16
2019-04-14T19:27:30.577Z,17.14
2019-04-14T19:29:57.834Z,17.14
2019-04-14T19:32:25.084Z,17.12
2019-04-14T19:34:51.963Z,17.12
2019-04-14T19:37:18.841Z,17.12
2019-04-14T19:39:45.750Z,17.08
2019-04-14T19:42:13.072Z,17.08
2019-04-14T19:44:40.424Z,17.10
2019-04-14T19:47:08.128Z,17.11
2019-04-14T19:49:35.103Z,17.09
2019-04-14T19:52:02.092Z,17.06
2019-04-14T19:54:29.438Z,17.05
2019-04-14T19:56:56.420Z,17.06
2019-04-14T19:59:23.398Z,16.97
2019-04-14T20:01:50.574Z,16.93
2019-04-14T20:04:17.462Z,16.93
2019-04-14T20:06:44.326Z,16.94
2019-04-14T20:09:11.631Z,16.93
2019-04-14T20:11:38.642Z,16.96
2019-04-14T20:14:05.923Z,16.94
2019-04-14T20:16:32.864Z,16.93
2019-04-14T20:19:09.857Z,16.96
2019-04-14T20:21:28.434Z,16.94
2019-04-14T20:23:55.769Z,16.93
2019-04-14T20:26:22.732Z,16.92
2019-04-14T20:28:49.949Z,16.92
2019-04-14T20:31:16.821Z,16.90
2019-04-14T20:33:43.813Z,16.84
2019-04-14T20:36:10.764Z,16.79
2019-04-14T20:38:37.990Z,16.76
2019-04-14T20:41:04.869Z,16.74
2019-04-14T20:43:32.025Z,16.73
2019-04-14T20:45:59.273Z,16.69
2019-04-14T20:48:26.269Z,16.64
2019-04-14T20:50:53.164Z,16.58
2019-04-14T20:53:20.030Z,16.49
2019-04-14T20:55:47.831Z,16.46
2019-04-14T20:58:15.257Z,16.46
2019-04-14T21:00:42.257Z,16.49
2019-04-14T21:03:09.384Z,16.47
2019-04-14T21:05:36.344Z,16.43
2019-04-14T21:08:04.558Z,16.34
2019-04-14T21:10:31.450Z,16.28
2019-04-14T21:12:58.653Z,16.28
2019-04-14T21:15:25.532Z,16.33
2019-04-14T21:17:52.854Z,16.28
2019-04-14T21:20:19.806Z,16.26
2019-04-14T21:22:48.076Z,16.25
2019-04-14T21:25:14.940Z,16.23
2019-04-14T21:27:42.176Z,16.21
2019-04-14T21:30:09.076Z,16.19
2019-04-14T21:32:36.038Z,16.15
2019-04-14T21:35:02.905Z,16.08
2019-04-14T21:37:30.171Z,16.04
2019-04-14T21:39:57.066Z,16.01
2019-04-14T21:42:24.359Z,15.99
2019-04-14T21:44:51.517Z,15.95
2019-04-14T21:47:18.502Z,15.82
2019-04-14T21:49:45.373Z,15.81
2019-04-14T21:52:12.281Z,15.76
2019-04-14T21:54:39.247Z,15.79
2019-04-14T21:57:06.534Z,15.83
2019-04-14T21:59:33.401Z,15.82
2019-04-14T22:02:00.286Z,15.81
2019-04-14T22:04:27.491Z,15.78
2019-04-14T22:06:54.464Z,15.78
2019-04-14T22:09:21.670Z,15.79
2019-04-14T22:11:48.600Z,15.79
2019-04-14T22:14:15.765Z,15.82
2019-04-14T22:16:42.668Z,15.83
2019-04-14T22:19:09.621Z,15.84
2019-04-14T22:21:36.617Z,15.87
2019-04-14T22:24:03.504Z,15.89
2019-04-14T22:26:31.014Z,15.86
2019-04-14T22:28:57.901Z,15.80
2019-04-14T22:31:24.849Z,15.71
2019-04-14T22:33:51.733Z,15.67
2019-04-14T22:36:18.606Z,15.65
2019-04-14T22:38:45.740Z,15.62
2019-04-14T22:41:12.677Z,15.54
2019-04-14T22:43:39.841Z,15.51
2019-04-14T22:46:06.791Z,15.48
2019-04-14T22:48:33.780Z,15.45
2019-04-14T22:51:01.094Z,15.43
2019-04-14T22:53:28.072Z,15.45
2019-04-14T22:55:55.001Z,15.40
2019-04-14T22:58:21.973Z,15.29
2019-04-14T23:00:48.849Z,15.16
2019-04-14T23:03:17.363Z,15.17
2019-04-14T23:05:44.612Z,15.20
2019-04-14T23:08:11.609Z,15.21
2019-04-14T23:10:38.473Z,15.20
2019-04-14T23:13:05.637Z,15.17
2019-04-14T23:15:33.108Z,15.12
2019-04-14T23:18:00.062Z,15.06
2019-04-14T23:20:27.316Z,14.98
2019-04-14T23:22:54.264Z,14.95
2019-04-14T23:25:21.140Z,14.91
2019-04-14T23:27:48.974Z,14.90
2019-04-14T23:30:15.869Z,14.91
2019-04-14T23:32:42.835Z,14.90
2019-04-14T23:35:09.776Z,14.95
2019-04-14T23:37:36.649Z,14.99
2019-04-14T23:40:04.931Z,15.02
2019-04-14T23:42:31.871Z,15.01
2019-04-14T23:44:58.829Z,14.88
2019-04-14T23:47:25.780Z,14.73
2019-04-14T23:49:52.724Z,14.74
2019-04-14T23:52:19.937Z,14.71
2019-04-14T23:54:46.824Z,14.70
2019-04-14T23:57:14.053Z,14.75
2019-04-14T23:59:41.320Z,14.76
